sensor_id;sensor_type;location;lat;lon;timestamp;pressure;altitude;pressure_sealevel;temperature;humidity
32033;BME280;31720;52.638;9.216;2023-04-28T00:02:42;101432.47;;;7.18;84.21
32033;BME280;31720;52.638;9.216;2023-04-28T00:05:44;101427.19;;;7.20;84.75
32033;BME280;31720;52.638;9.216;2023-04-28T00:08:48;101429.00;;;7.18;84.36
32033;BME280;31720;52.638;9.216;2023-04-28T00:11:51;101423.00;;;7.12;85.04
32033;BME280;31720;52.638;9.216;2023-04-28T00:14:52;101418.53;;;7.18;84.89
32033;BME280;31720;52.638;9.216;2023-04-28T00:17:53;101416.59;;;7.24;84.11
32033;BME280;31720;52.638;9.216;2023-04-28T00:20:55;101411.44;;;7.21;82.83
32033;BME280;31720;52.638;9.216;2023-04-28T00:23:56;101410.44;;;7.27;83.18
32033;BME280;31720;52.638;9.216;2023-04-28T00:26:59;101408.56;;;7.30;83.21
32033;BME280;31720;52.638;9.216;2023-04-28T00:30:01;101407.56;;;7.34;82.19
32033;BME280;31720;52.638;9.216;2023-04-28T00:33:03;101400.72;;;7.30;81.23
32033;BME280;31720;52.638;9.216;2023-04-28T00:36:05;101397.38;;;7.25;80.18
32033;BME280;31720;52.638;9.216;2023-04-28T00:39:07;101400.84;;;7.26;81.04
32033;BME280;31720;52.638;9.216;2023-04-28T00:42:10;101393.00;;;7.26;81.26
32033;BME280;31720;52.638;9.216;2023-04-28T00:45:11;101397.38;;;7.27;79.99
32033;BME280;31720;52.638;9.216;2023-04-28T00:48:13;101390.59;;;7.20;80.17
32033;BME280;31720;52.638;9.216;2023-04-28T00:51:14;101375.75;;;7.20;79.51
32033;BME280;31720;52.638;9.216;2023-04-28T00:54:16;101374.97;;;7.17;79.85
32033;BME280;31720;52.638;9.216;2023-04-28T00:57:19;101367.06;;;7.20;80.84
32033;BME280;31720;52.638;9.216;2023-04-28T01:00:20;101373.97;;;7.22;80.87
32033;BME280;31720;52.638;9.216;2023-04-28T01:03:22;101372.06;;;7.27;81.32
32033;BME280;31720;52.638;9.216;2023-04-28T01:06:23;101363.41;;;7.25;79.34
32033;BME280;31720;52.638;9.216;2023-04-28T01:09:25;101365.31;;;7.20;80.55
32033;BME280;31720;52.638;9.216;2023-04-28T01:12:27;101355.63;;;7.24;80.34
32033;BME280;31720;52.638;9.216;2023-04-28T01:15:29;101347.84;;;7.22;79.17
32033;BME280;31720;52.638;9.216;2023-04-28T01:18:31;101343.63;;;7.17;79.57
32033;BME280;31720;52.638;9.216;2023-04-28T01:21:33;101343.53;;;7.20;79.92
32033;BME280;31720;52.638;9.216;2023-04-28T01:24:36;101344.38;;;7.20;81.09
32033;BME280;31720;52.638;9.216;2023-04-28T01:27:37;101339.09;;;7.23;81.39
32033;BME280;31720;52.638;9.216;2023-04-28T01:30:38;101338.09;;;7.27;81.10
32033;BME280;31720;52.638;9.216;2023-04-28T01:33:40;101343.25;;;7.29;80.94
32033;BME280;31720;52.638;9.216;2023-04-28T01:36:41;101338.03;;;7.29;79.51
32033;BME280;31720;52.638;9.216;2023-04-28T01:39:44;101335.41;;;7.29;79.42
32033;BME280;31720;52.638;9.216;2023-04-28T01:42:45;101323.97;;;7.33;80.17
32033;BME280;31720;52.638;9.216;2023-04-28T01:45:46;101323.97;;;7.33;80.09
32033;BME280;31720;52.638;9.216;2023-04-28T01:48:48;101315.28;;;7.32;80.78
32033;BME280;31720;52.638;9.216;2023-04-28T01:51:49;101307.28;;;7.37;80.73
32033;BME280;31720;52.638;9.216;2023-04-28T01:54:52;101300.28;;;7.37;79.44
32033;BME280;31720;52.638;9.216;2023-04-28T01:57:53;101297.63;;;7.39;79.87
32033;BME280;31720;52.638;9.216;2023-04-28T02:00:57;101287.38;;;7.33;79.14
32033;BME280;31720;52.638;9.216;2023-04-28T02:03:59;101290.75;;;7.36;79.79
32033;BME280;31720;52.638;9.216;2023-04-28T02:07:00;101282.78;;;7.40;78.06
32033;BME280;31720;52.638;9.216;2023-04-28T02:10:03;101287.94;;;7.43;77.16
32033;BME280;31720;52.638;9.216;2023-04-28T02:13:05;101285.22;;;7.46;76.88
32033;BME280;31720;52.638;9.216;2023-04-28T02:16:07;101282.47;;;7.50;78.17
32033;BME280;31720;52.638;9.216;2023-04-28T02:19:08;101284.22;;;7.50;76.79
32033;BME280;31720;52.638;9.216;2023-04-28T02:22:09;101276.25;;;7.53;77.09
32033;BME280;31720;52.638;9.216;2023-04-28T02:25:12;101276.97;;;7.58;76.55
32033;BME280;31720;52.638;9.216;2023-04-28T02:28:13;101273.31;;;7.63;76.25
32033;BME280;31720;52.638;9.216;2023-04-28T02:31:15;101269.84;;;7.63;76.34
32033;BME280;31720;52.638;9.216;2023-04-28T02:34:16;101272.78;;;7.52;72.74
32033;BME280;31720;52.638;9.216;2023-04-28T02:37:17;101260.72;;;7.48;73.75
32033;BME280;31720;52.638;9.216;2023-04-28T02:40:20;101249.25;;;7.52;75.67
32033;BME280;31720;52.638;9.216;2023-04-28T02:43:21;101245.56;;;7.59;74.69
32033;BME280;31720;52.638;9.216;2023-04-28T02:46:23;101247.19;;;7.62;75.16
32033;BME280;31720;52.638;9.216;2023-04-28T02:49:24;101245.59;;;7.58;75.03
32033;BME280;31720;52.638;9.216;2023-04-28T02:52:25;101237.94;;;7.52;74.62
32033;BME280;31720;52.638;9.216;2023-04-28T02:55:28;101236.19;;;7.52;73.78
32033;BME280;31720;52.638;9.216;2023-04-28T02:58:29;101230.00;;;7.55;75.53
32033;BME280;31720;52.638;9.216;2023-04-28T03:01:31;101227.41;;;7.55;75.45
32033;BME280;31720;52.638;9.216;2023-04-28T03:04:32;101224.50;;;7.62;76.20
32033;BME280;31720;52.638;9.216;2023-04-28T03:07:33;101212.50;;;7.57;76.00
32033;BME280;31720;52.638;9.216;2023-04-28T03:10:36;101209.41;;;7.46;74.58
32033;BME280;31720;52.638;9.216;2023-04-28T03:13:37;101213.66;;;7.48;75.29
32033;BME280;31720;52.638;9.216;2023-04-28T03:16:39;101205.78;;;7.50;75.45
32033;BME280;31720;52.638;9.216;2023-04-28T03:19:40;101200.88;;;7.39;74.00
32033;BME280;31720;52.638;9.216;2023-04-28T03:22:42;101191.41;;;7.36;76.54
32033;BME280;31720;52.638;9.216;2023-04-28T03:25:44;101189.78;;;7.32;75.74
32033;BME280;31720;52.638;9.216;2023-04-28T03:28:45;101193.34;;;7.30;74.80
32033;BME280;31720;52.638;9.216;2023-04-28T03:31:47;101191.69;;;7.27;75.41
32033;BME280;31720;52.638;9.216;2023-04-28T03:34:48;101180.63;;;7.19;75.91
32033;BME280;31720;52.638;9.216;2023-04-28T03:37:49;101178.94;;;7.17;76.49
32033;BME280;31720;52.638;9.216;2023-04-28T03:40:52;101177.03;;;7.22;76.21
32033;BME280;31720;52.638;9.216;2023-04-28T03:43:54;101175.19;;;7.25;77.19
32033;BME280;31720;52.638;9.216;2023-04-28T03:46:55;101168.16;;;7.27;77.46
32033;BME280;31720;52.638;9.216;2023-04-28T03:49:57;101156.94;;;7.24;76.75
32033;BME280;31720;52.638;9.216;2023-04-28T03:52:59;101157.09;;;7.19;77.17
32033;BME280;31720;52.638;9.216;2023-04-28T03:56:02;101152.72;;;7.20;77.27
32033;BME280;31720;52.638;9.216;2023-04-28T03:59:04;101144.94;;;7.18;77.15
32033;BME280;31720;52.638;9.216;2023-04-28T04:02:05;101148.28;;;7.22;77.71
32033;BME280;31720;52.638;9.216;2023-04-28T04:05:07;101142.47;;;7.14;77.77
32033;BME280;31720;52.638;9.216;2023-04-28T04:08:08;101137.97;;;7.17;78.36
32033;BME280;31720;52.638;9.216;2023-04-28T04:11:11;101145.75;;;7.20;77.95
32033;BME280;31720;52.638;9.216;2023-04-28T04:14:12;101146.56;;;7.22;76.87
32033;BME280;31720;52.638;9.216;2023-04-28T04:17:14;101139.50;;;7.24;76.82
32033;BME280;31720;52.638;9.216;2023-04-28T04:20:15;101140.28;;;7.26;76.48
32033;BME280;31720;52.638;9.216;2023-04-28T04:23:17;101137.19;;;7.15;75.59
32033;BME280;31720;52.638;9.216;2023-04-28T04:26:19;101131.06;;;7.16;76.99
32033;BME280;31720;52.638;9.216;2023-04-28T04:29:21;101128.59;;;7.11;76.42
32033;BME280;31720;52.638;9.216;2023-04-28T04:32:22;101135.34;;;7.19;77.60
32033;BME280;31720;52.638;9.216;2023-04-28T04:35:24;101116.94;;;7.22;77.50
32033;BME280;31720;52.638;9.216;2023-04-28T04:38:25;101119.84;;;7.12;75.85
32033;BME280;31720;52.638;9.216;2023-04-28T04:41:28;101132.03;;;7.14;77.16
32033;BME280;31720;52.638;9.216;2023-04-28T04:44:29;101124.75;;;7.23;76.88
32033;BME280;31720;52.638;9.216;2023-04-28T04:47:30;101130.97;;;7.19;75.89
32033;BME280;31720;52.638;9.216;2023-04-28T04:50:32;101118.75;;;7.20;77.14
32033;BME280;31720;52.638;9.216;2023-04-28T04:53:33;101112.53;;;7.24;77.00
32033;BME280;31720;52.638;9.216;2023-04-28T04:56:36;101116.28;;;7.15;76.13
32033;BME280;31720;52.638;9.216;2023-04-28T04:59:37;101109.31;;;7.16;76.01
32033;BME280;31720;52.638;9.216;2023-04-28T05:02:39;101113.47;;;7.21;77.13
32033;BME280;31720;52.638;9.216;2023-04-28T05:05:40;101110.91;;;7.20;76.61
32033;BME280;31720;52.638;9.216;2023-04-28T05:08:41;101100.38;;;7.21;76.05
32033;BME280;31720;52.638;9.216;2023-04-28T05:11:44;101102.22;;;7.19;75.96
32033;BME280;31720;52.638;9.216;2023-04-28T05:14:46;101104.44;;;7.30;76.74
32033;BME280;31720;52.638;9.216;2023-04-28T05:17:47;101092.31;;;7.29;76.10
32033;BME280;31720;52.638;9.216;2023-04-28T05:20:48;101093.81;;;7.36;76.03
32033;BME280;31720;52.638;9.216;2023-04-28T05:23:50;101096.13;;;7.44;75.42
32033;BME280;31720;52.638;9.216;2023-04-28T05:26:57;101091.56;;;7.50;76.79
32033;BME280;31720;52.638;9.216;2023-04-28T05:29:59;101088.09;;;7.50;75.60
32033;BME280;31720;52.638;9.216;2023-04-28T05:33:00;101089.63;;;7.55;75.57
32033;BME280;31720;52.638;9.216;2023-04-28T05:36:02;101082.53;;;7.59;76.07
32033;BME280;31720;52.638;9.216;2023-04-28T05:39:03;101081.41;;;7.66;76.39
32033;BME280;31720;52.638;9.216;2023-04-28T05:42:06;101076.00;;;7.71;76.12
32033;BME280;31720;52.638;9.216;2023-04-28T05:45:08;101076.81;;;7.73;75.73
32033;BME280;31720;52.638;9.216;2023-04-28T05:48:10;101067.81;;;7.80;76.40
32033;BME280;31720;52.638;9.216;2023-04-28T05:51:11;101066.97;;;7.79;74.72
32033;BME280;31720;52.638;9.216;2023-04-28T05:54:13;101069.06;;;7.93;75.51
32033;BME280;31720;52.638;9.216;2023-04-28T05:57:15;101070.59;;;7.99;74.71
32033;BME280;31720;52.638;9.216;2023-04-28T06:00:17;101063.31;;;8.07;75.75
32033;BME280;31720;52.638;9.216;2023-04-28T06:03:18;101064.75;;;8.16;73.88
32033;BME280;31720;52.638;9.216;2023-04-28T06:06:20;101063.47;;;8.26;74.68
32033;BME280;31720;52.638;9.216;2023-04-28T06:09:21;101062.19;;;8.37;73.85
32033;BME280;31720;52.638;9.216;2023-04-28T06:12:24;101057.63;;;8.43;71.58
32033;BME280;31720;52.638;9.216;2023-04-28T06:15:26;101055.56;;;8.51;73.04
32033;BME280;31720;52.638;9.216;2023-04-28T06:18:28;101058.00;;;8.55;70.51
32033;BME280;31720;52.638;9.216;2023-04-28T06:21:31;101060.25;;;8.64;70.66
32033;BME280;31720;52.638;9.216;2023-04-28T06:24:32;101061.56;;;8.75;73.61
32033;BME280;31720;52.638;9.216;2023-04-28T06:27:35;101064.84;;;8.80;72.53
32033;BME280;31720;52.638;9.216;2023-04-28T06:30:36;101055.22;;;8.80;69.31
32033;BME280;31720;52.638;9.216;2023-04-28T06:33:38;101061.91;;;8.87;70.00
32033;BME280;31720;52.638;9.216;2023-04-28T06:36:39;101044.97;;;8.96;71.27
32033;BME280;31720;52.638;9.216;2023-04-28T06:39:41;101048.16;;;9.03;70.87
32033;BME280;31720;52.638;9.216;2023-04-28T06:42:43;101052.16;;;9.11;72.18
32033;BME280;31720;52.638;9.216;2023-04-28T06:45:45;101051.97;;;9.16;69.95
32033;BME280;31720;52.638;9.216;2023-04-28T06:48:47;101054.19;;;9.25;69.02
32033;BME280;31720;52.638;9.216;2023-04-28T06:51:48;101053.16;;;9.29;69.20
32033;BME280;31720;52.638;9.216;2023-04-28T06:54:50;101038.06;;;9.34;70.26
32033;BME280;31720;52.638;9.216;2023-04-28T06:57:52;101047.44;;;9.40;69.18
32033;BME280;31720;52.638;9.216;2023-04-28T07:00:54;101048.13;;;9.45;69.93
32033;BME280;31720;52.638;9.216;2023-04-28T07:03:55;101042.50;;;9.53;68.93
32033;BME280;31720;52.638;9.216;2023-04-28T07:06:57;101043.16;;;9.58;69.84
32033;BME280;31720;52.638;9.216;2023-04-28T07:09:58;101041.19;;;9.63;69.57
32033;BME280;31720;52.638;9.216;2023-04-28T07:13:01;101035.59;;;9.71;71.29
32033;BME280;31720;52.638;9.216;2023-04-28T07:16:03;101035.59;;;9.71;69.68
32033;BME280;31720;52.638;9.216;2023-04-28T07:19:04;101033.59;;;9.76;69.77
32033;BME280;31720;52.638;9.216;2023-04-28T07:22:06;101030.84;;;9.79;69.59
32033;BME280;31720;52.638;9.216;2023-04-28T07:25:07;101032.53;;;9.80;67.93
32033;BME280;31720;52.638;9.216;2023-04-28T07:28:10;101025.47;;;9.82;67.10
32033;BME280;31720;52.638;9.216;2023-04-28T07:31:12;101032.22;;;9.87;69.07
32033;BME280;31720;52.638;9.216;2023-04-28T07:34:13;101025.06;;;9.91;68.36
32033;BME280;31720;52.638;9.216;2023-04-28T07:37:15;101028.31;;;9.96;69.66
32033;BME280;31720;52.638;9.216;2023-04-28T07:40:16;101025.47;;;10.01;68.78
32033;BME280;31720;52.638;9.216;2023-04-28T07:43:19;101021.91;;;10.02;68.92
32033;BME280;31720;52.638;9.216;2023-04-28T07:46:20;101025.25;;;10.05;68.39
32033;BME280;31720;52.638;9.216;2023-04-28T07:49:22;101024.13;;;10.11;68.95
32033;BME280;31720;52.638;9.216;2023-04-28T07:52:24;101016.94;;;10.14;66.10
32033;BME280;31720;52.638;9.216;2023-04-28T07:55:25;101008.84;;;10.19;66.33
32033;BME280;31720;52.638;9.216;2023-04-28T07:58:28;101011.22;;;10.25;67.99
32033;BME280;31720;52.638;9.216;2023-04-28T08:01:29;101012.47;;;10.35;68.17
32033;BME280;31720;52.638;9.216;2023-04-28T08:04:31;101012.19;;;10.41;69.47
32033;BME280;31720;52.638;9.216;2023-04-28T08:07:34;101006.63;;;10.48;67.09
32033;BME280;31720;52.638;9.216;2023-04-28T08:10:37;101004.47;;;10.56;69.63
32033;BME280;31720;52.638;9.216;2023-04-28T08:13:41;101001.72;;;10.59;66.32
32033;BME280;31720;52.638;9.216;2023-04-28T08:16:42;100998.69;;;10.66;66.85
32033;BME280;31720;52.638;9.216;2023-04-28T08:19:44;101000.09;;;10.74;67.23
32033;BME280;31720;52.638;9.216;2023-04-28T08:22:46;100995.59;;;10.76;65.63
32033;BME280;31720;52.638;9.216;2023-04-28T08:25:49;100988.31;;;10.81;66.63
32033;BME280;31720;52.638;9.216;2023-04-28T08:28:51;100995.84;;;10.88;66.45
32033;BME280;31720;52.638;9.216;2023-04-28T08:31:53;101001.09;;;10.88;67.04
32033;BME280;31720;52.638;9.216;2023-04-28T08:34:54;100996.69;;;10.89;66.68
32033;BME280;31720;52.638;9.216;2023-04-28T08:37:56;101000.25;;;10.88;66.58
32033;BME280;31720;52.638;9.216;2023-04-28T08:40:57;100997.53;;;10.89;65.53
32033;BME280;31720;52.638;9.216;2023-04-28T08:44:00;100996.44;;;10.93;65.63
32033;BME280;31720;52.638;9.216;2023-04-28T08:47:02;101002.31;;;10.99;68.29
32033;BME280;31720;52.638;9.216;2023-04-28T08:50:06;101004.56;;;11.06;68.12
32033;BME280;31720;52.638;9.216;2023-04-28T08:53:09;100999.78;;;11.14;68.87
32033;BME280;31720;52.638;9.216;2023-04-28T08:56:13;100996.81;;;11.21;67.79
32033;BME280;31720;52.638;9.216;2023-04-28T08:59:17;101007.19;;;11.24;65.74
32033;BME280;31720;52.638;9.216;2023-04-28T09:02:19;100999.16;;;11.27;66.55
32033;BME280;31720;52.638;9.216;2023-04-28T09:05:21;100996.56;;;11.25;67.04
32033;BME280;31720;52.638;9.216;2023-04-28T09:08:22;100991.91;;;11.30;67.05
32033;BME280;31720;52.638;9.216;2023-04-28T09:11:23;101002.28;;;11.33;66.34
32033;BME280;31720;52.638;9.216;2023-04-28T09:14:27;100993.53;;;11.33;65.54
32033;BME280;31720;52.638;9.216;2023-04-28T09:17:28;100987.34;;;11.34;66.43
32033;BME280;31720;52.638;9.216;2023-04-28T09:20:31;100989.88;;;11.35;65.62
32033;BME280;31720;52.638;9.216;2023-04-28T09:23:33;100982.09;;;11.34;65.89
32033;BME280;31720;52.638;9.216;2023-04-28T09:26:47;100987.19;;;11.37;69.03
32033;BME280;31720;52.638;9.216;2023-04-28T09:29:52;100982.94;;;11.34;69.74
32033;BME280;31720;52.638;9.216;2023-04-28T09:33:03;100980.53;;;11.30;68.27
32033;BME280;31720;52.638;9.216;2023-04-28T09:36:04;100979.94;;;11.25;68.10
32033;BME280;31720;52.638;9.216;2023-04-28T09:39:06;100977.31;;;11.25;70.81
32033;BME280;31720;52.638;9.216;2023-04-28T09:42:07;100973.81;;;11.24;71.21
32033;BME280;31720;52.638;9.216;2023-04-28T09:45:12;100985.91;;;11.28;71.43
32033;BME280;31720;52.638;9.216;2023-04-28T09:48:13;100971.94;;;11.26;71.84
32033;BME280;31720;52.638;9.216;2023-04-28T09:51:19;100982.19;;;11.32;70.02
32033;BME280;31720;52.638;9.216;2023-04-28T09:54:21;100981.16;;;11.35;71.97
32033;BME280;31720;52.638;9.216;2023-04-28T09:57:23;100979.31;;;11.37;74.08
32033;BME280;31720;52.638;9.216;2023-04-28T10:00:27;100980.91;;;11.39;76.10
32033;BME280;31720;52.638;9.216;2023-04-28T10:03:29;100975.34;;;11.46;81.55
32033;BME280;31720;52.638;9.216;2023-04-28T10:06:32;100982.81;;;11.53;84.31
32033;BME280;31720;52.638;9.216;2023-04-28T10:09:34;100975.69;;;11.55;83.36
32033;BME280;31720;52.638;9.216;2023-04-28T10:12:36;100976.53;;;11.56;81.65
32033;BME280;31720;52.638;9.216;2023-04-28T10:15:39;100967.78;;;11.55;81.77
32033;BME280;31720;52.638;9.216;2023-04-28T10:18:41;100970.44;;;11.55;82.71
32033;BME280;31720;52.638;9.216;2023-04-28T10:21:47;100965.16;;;11.55;83.02
32033;BME280;31720;52.638;9.216;2023-04-28T10:25:07;100962.38;;;11.58;82.54
32033;BME280;31720;52.638;9.216;2023-04-28T10:28:13;100958.47;;;11.65;83.37
32033;BME280;31720;52.638;9.216;2023-04-28T10:31:18;100963.38;;;11.72;81.09
32033;BME280;31720;52.638;9.216;2023-04-28T10:34:21;100956.69;;;11.82;82.63
32033;BME280;31720;52.638;9.216;2023-04-28T10:40:55;100949.66;;;11.98;78.37
32033;BME280;31720;52.638;9.216;2023-04-28T10:44:40;100934.81;;;12.13;76.19
32033;BME280;31720;52.638;9.216;2023-04-28T10:48:01;100926.94;;;12.27;74.17
32033;BME280;31720;52.638;9.216;2023-04-28T10:51:22;100932.38;;;12.40;75.14
32033;BME280;31720;52.638;9.216;2023-04-28T10:54:24;100919.31;;;12.53;75.30
32033;BME280;31720;52.638;9.216;2023-04-28T10:57:27;100912.63;;;12.61;73.45
32033;BME280;31720;52.638;9.216;2023-04-28T11:00:28;100911.06;;;12.73;71.76
32033;BME280;31720;52.638;9.216;2023-04-28T11:03:47;100904.84;;;12.74;70.04
32033;BME280;31720;52.638;9.216;2023-04-28T11:07:08;100907.88;;;12.68;71.34
32033;BME280;31720;52.638;9.216;2023-04-28T11:10:10;100909.06;;;12.62;69.59
32033;BME280;31720;52.638;9.216;2023-04-28T11:13:24;100898.44;;;12.64;70.07
32033;BME280;31720;52.638;9.216;2023-04-28T11:16:25;100898.34;;;12.65;70.15
32033;BME280;31720;52.638;9.216;2023-04-28T11:19:29;100887.41;;;12.72;72.75
32033;BME280;31720;52.638;9.216;2023-04-28T11:22:32;100886.63;;;12.85;72.85
32033;BME280;31720;52.638;9.216;2023-04-28T11:25:54;100889.72;;;12.92;70.96
32033;BME280;31720;52.638;9.216;2023-04-28T11:28:56;100883.31;;;12.96;70.79
32033;BME280;31720;52.638;9.216;2023-04-28T11:31:58;100886.78;;;12.97;71.17
32033;BME280;31720;52.638;9.216;2023-04-28T11:35:01;100885.38;;;13.05;71.29
32033;BME280;31720;52.638;9.216;2023-04-28T11:38:04;100876.41;;;13.08;69.63
32033;BME280;31720;52.638;9.216;2023-04-28T11:41:05;100882.84;;;13.04;69.15
32033;BME280;31720;52.638;9.216;2023-04-28T11:44:11;100872.09;;;13.07;69.13
32033;BME280;31720;52.638;9.216;2023-04-28T11:47:12;100874.06;;;13.03;69.24
32033;BME280;31720;52.638;9.216;2023-04-28T11:50:15;100875.84;;;13.03;70.11
32033;BME280;31720;52.638;9.216;2023-04-28T11:53:17;100865.84;;;13.08;70.52
32033;BME280;31720;52.638;9.216;2023-04-28T11:56:18;100864.44;;;13.16;69.16
32033;BME280;31720;52.638;9.216;2023-04-28T11:59:23;100867.94;;;13.17;69.16
32033;BME280;31720;52.638;9.216;2023-04-28T12:02:26;100862.56;;;13.18;69.25
32033;BME280;31720;52.638;9.216;2023-04-28T12:05:29;100863.31;;;13.20;69.33
32033;BME280;31720;52.638;9.216;2023-04-28T12:08:33;100857.28;;;13.18;70.10
32033;BME280;31720;52.638;9.216;2023-04-28T12:11:35;100860.13;;;13.15;69.31
32033;BME280;31720;52.638;9.216;2023-04-28T12:14:56;100866.63;;;13.10;69.30
32033;BME280;31720;52.638;9.216;2023-04-28T12:18:08;100864.56;;;13.01;69.16
32033;BME280;31720;52.638;9.216;2023-04-28T12:21:20;100846.84;;;13.03;70.22
32033;BME280;31720;52.638;9.216;2023-04-28T12:24:22;100851.53;;;13.12;69.67
32033;BME280;31720;52.638;9.216;2023-04-28T12:27:25;100848.19;;;13.24;69.70
32033;BME280;31720;52.638;9.216;2023-04-28T12:30:29;100842.38;;;13.46;69.06
32033;BME280;31720;52.638;9.216;2023-04-28T12:33:30;100830.66;;;13.64;68.67
32033;BME280;31720;52.638;9.216;2023-04-28T12:36:37;100829.28;;;13.71;68.08
32033;BME280;31720;52.638;9.216;2023-04-28T12:39:40;100822.00;;;13.75;68.91
32033;BME280;31720;52.638;9.216;2023-04-28T12:42:41;100817.56;;;13.76;69.52
32033;BME280;31720;52.638;9.216;2023-04-28T12:45:43;100818.16;;;13.81;68.57
32033;BME280;31720;52.638;9.216;2023-04-28T12:48:44;100821.75;;;13.92;68.13
32033;BME280;31720;52.638;9.216;2023-04-28T12:51:47;100819.34;;;14.02;68.09
32033;BME280;31720;52.638;9.216;2023-04-28T12:54:48;100813.22;;;14.02;68.72
32033;BME280;31720;52.638;9.216;2023-04-28T12:57:49;100809.72;;;14.01;70.20
32033;BME280;31720;52.638;9.216;2023-04-28T13:00:51;100808.69;;;14.04;70.83
32033;BME280;31720;52.638;9.216;2023-04-28T13:03:52;100801.19;;;14.10;69.91
32033;BME280;31720;52.638;9.216;2023-04-28T13:06:55;100795.81;;;14.25;69.33
32033;BME280;31720;52.638;9.216;2023-04-28T13:09:57;100804.09;;;14.45;72.01
32033;BME280;31720;52.638;9.216;2023-04-28T13:12:59;100800.53;;;14.72;69.60
32033;BME280;31720;52.638;9.216;2023-04-28T13:16:01;100799.41;;;15.13;68.58
32033;BME280;31720;52.638;9.216;2023-04-28T13:19:03;100798.75;;;15.46;68.19
32033;BME280;31720;52.638;9.216;2023-04-28T13:22:09;100800.06;;;15.40;66.72
32033;BME280;31720;52.638;9.216;2023-04-28T13:25:11;100807.44;;;15.11;67.15
32033;BME280;31720;52.638;9.216;2023-04-28T13:28:12;100792.84;;;14.93;69.21
32033;BME280;31720;52.638;9.216;2023-04-28T13:31:14;100789.56;;;14.89;71.02
32033;BME280;31720;52.638;9.216;2023-04-28T13:34:16;100776.59;;;14.86;71.93
32033;BME280;31720;52.638;9.216;2023-04-28T13:37:19;100780.06;;;14.87;71.08
32033;BME280;31720;52.638;9.216;2023-04-28T13:40:20;100775.63;;;14.87;73.30
32033;BME280;31720;52.638;9.216;2023-04-28T13:43:22;100772.47;;;14.82;72.24
32033;BME280;31720;52.638;9.216;2023-04-28T13:46:24;100765.69;;;14.78;72.15
32033;BME280;31720;52.638;9.216;2023-04-28T13:49:25;100772.56;;;14.81;74.85
32033;BME280;31720;52.638;9.216;2023-04-28T13:52:28;100774.44;;;14.91;71.06
32033;BME280;31720;52.638;9.216;2023-04-28T13:55:30;100767.63;;;15.13;71.63
32033;BME280;31720;52.638;9.216;2023-04-28T13:58:31;100765.16;;;15.22;69.95
32033;BME280;31720;52.638;9.216;2023-04-28T14:01:33;100770.34;;;15.24;69.32
32033;BME280;31720;52.638;9.216;2023-04-28T14:04:34;100767.56;;;15.26;72.84
32033;BME280;31720;52.638;9.216;2023-04-28T14:07:37;100769.06;;;15.17;71.24
32033;BME280;31720;52.638;9.216;2023-04-28T14:10:38;100765.84;;;15.01;74.06
32033;BME280;31720;52.638;9.216;2023-04-28T14:13:40;100770.22;;;14.89;75.39
32033;BME280;31720;52.638;9.216;2023-04-28T14:16:42;100771.75;;;14.67;74.39
32033;BME280;31720;52.638;9.216;2023-04-28T14:19:44;100772.91;;;14.51;74.40
32033;BME280;31720;52.638;9.216;2023-04-28T14:22:47;100758.63;;;14.40;76.71
32033;BME280;31720;52.638;9.216;2023-04-28T14:25:48;100759.47;;;14.41;77.22
32033;BME280;31720;52.638;9.216;2023-04-28T14:28:50;100749.00;;;14.52;77.15
32033;BME280;31720;52.638;9.216;2023-04-28T14:31:52;100748.28;;;14.50;74.98
32033;BME280;31720;52.638;9.216;2023-04-28T14:34:53;100739.91;;;14.56;76.23
32033;BME280;31720;52.638;9.216;2023-04-28T14:37:56;100738.94;;;14.70;74.23
32033;BME280;31720;52.638;9.216;2023-04-28T14:40:57;100727.38;;;14.84;74.75
32033;BME280;31720;52.638;9.216;2023-04-28T14:43:59;100723.88;;;14.83;74.61
32033;BME280;31720;52.638;9.216;2023-04-28T14:47:00;100723.38;;;14.78;75.05
32033;BME280;31720;52.638;9.216;2023-04-28T14:50:02;100717.94;;;14.80;74.43
32033;BME280;31720;52.638;9.216;2023-04-28T14:53:05;100720.09;;;14.75;74.18
32033;BME280;31720;52.638;9.216;2023-04-28T14:56:07;100706.00;;;14.74;74.02
32033;BME280;31720;52.638;9.216;2023-04-28T14:59:09;100705.56;;;14.80;74.43
32033;BME280;31720;52.638;9.216;2023-04-28T15:02:11;100704.03;;;14.65;73.20
32033;BME280;31720;52.638;9.216;2023-04-28T15:05:13;100706.59;;;14.54;74.71
32033;BME280;31720;52.638;9.216;2023-04-28T15:08:15;100698.53;;;14.42;76.83
32033;BME280;31720;52.638;9.216;2023-04-28T15:11:17;100693.34;;;14.41;76.57
32033;BME280;31720;52.638;9.216;2023-04-28T15:14:18;100690.72;;;14.41;76.75
32033;BME280;31720;52.638;9.216;2023-04-28T15:17:20;100699.59;;;14.40;77.73
32033;BME280;31720;52.638;9.216;2023-04-28T15:20:22;100691.56;;;14.54;76.25
32033;BME280;31720;52.638;9.216;2023-04-28T15:23:24;100693.25;;;14.55;77.61
32033;BME280;31720;52.638;9.216;2023-04-28T15:26:26;100695.38;;;14.50;78.08
32033;BME280;31720;52.638;9.216;2023-04-28T15:29:27;100692.19;;;14.45;79.87
32033;BME280;31720;52.638;9.216;2023-04-28T15:32:28;100684.91;;;14.36;80.88
32033;BME280;31720;52.638;9.216;2023-04-28T15:35:31;100681.19;;;14.26;82.12
32033;BME280;31720;52.638;9.216;2023-04-28T15:38:34;100676.88;;;14.25;87.44
32033;BME280;31720;52.638;9.216;2023-04-28T15:41:35;100673.91;;;14.16;93.91
32033;BME280;31720;52.638;9.216;2023-04-28T15:44:37;100678.91;;;14.08;100.00
32033;BME280;31720;52.638;9.216;2023-04-28T15:47:38;100689.78;;;14.04;100.00
32033;BME280;31720;52.638;9.216;2023-04-28T15:50:41;100688.81;;;13.92;99.34
32033;BME280;31720;52.638;9.216;2023-04-28T15:53:44;100692.59;;;13.88;100.00
32033;BME280;31720;52.638;9.216;2023-04-28T15:56:45;100695.53;;;13.70;100.00
32033;BME280;31720;52.638;9.216;2023-04-28T15:59:47;100692.03;;;13.57;100.00
32033;BME280;31720;52.638;9.216;2023-04-28T16:02:48;100692.09;;;13.43;100.00
32033;BME280;31720;52.638;9.216;2023-04-28T16:05:53;100688.50;;;13.31;100.00